sensor_id;sensor_type;location;lat;lon;timestamp;P1;durP1;ratioP1;P2;durP2;ratioP2
21084;SDS011;34247;50.064;19.970;2023-04-24T00:00:31;3.53;;;2.85;;
21084;SDS011;34247;50.064;19.970;2023-04-24T00:01:36;6.40;;;3.25;;
21084;SDS011;34247;50.064;19.970;2023-04-24T00:02:42;3.80;;;1.83;;
21084;SDS011;34247;50.064;19.970;2023-04-24T00:03:50;4.18;;;3.67;;
21084;SDS011;34247;50.064;19.970;2023-04-24T00:04:56;3.08;;;2.33;;
21084;SDS011;34247;50.064;19.970;2023-04-24T00:06:05;6.90;;;2.60;;
21084;SDS011;34247;50.064;19.970;2023-04-24T00:07:14;5.90;;;2.55;;
21084;SDS011;34247;50.064;19.970;2023-04-24T00:08:19;5.70;;;3.00;;
21084;SDS011;34247;50.064;19.970;2023-04-24T00:09:26;6.30;;;2.78;;
21084;SDS011;34247;50.064;19.970;2023-04-24T00:10:31;7.05;;;3.45;;
21084;SDS011;34247;50.064;19.970;2023-04-24T00:11:37;7.70;;;3.17;;
21084;SDS011;34247;50.064;19.970;2023-04-24T00:12:42;3.30;;;2.10;;
21084;SDS011;34247;50.064;19.970;2023-04-24T00:13:47;7.07;;;2.67;;
21084;SDS011;34247;50.064;19.970;2023-04-24T00:14:51;8.88;;;3.00;;
21084;SDS011;34247;50.064;19.970;2023-04-24T00:15:55;5.03;;;3.22;;
21084;SDS011;34247;50.064;19.970;2023-04-24T00:17:02;5.03;;;2.70;;
21084;SDS011;34247;50.064;19.970;2023-04-24T00:18:07;4.25;;;2.63;;
21084;SDS011;34247;50.064;19.970;2023-04-24T00:19:11;7.03;;;2.90;;
21084;SDS011;34247;50.064;19.970;2023-04-24T00:20:17;5.15;;;2.90;;
21084;SDS011;34247;50.064;19.970;2023-04-24T00:21:22;4.60;;;2.88;;
21084;SDS011;34247;50.064;19.970;2023-04-24T00:22:28;4.20;;;3.22;;
21084;SDS011;34247;50.064;19.970;2023-04-24T00:23:35;8.63;;;3.15;;
21084;SDS011;34247;50.064;19.970;2023-04-24T00:24:39;7.35;;;2.88;;
21084;SDS011;34247;50.064;19.970;2023-04-24T00:25:45;4.15;;;2.45;;
21084;SDS011;34247;50.064;19.970;2023-04-24T00:26:49;7.47;;;3.38;;
21084;SDS011;34247;50.064;19.970;2023-04-24T00:27:53;6.72;;;2.50;;
21084;SDS011;34247;50.064;19.970;2023-04-24T00:28:57;6.25;;;3.35;;
21084;SDS011;34247;50.064;19.970;2023-04-24T00:30:03;3.50;;;2.20;;
21084;SDS011;34247;50.064;19.970;2023-04-24T00:31:09;7.32;;;3.15;;
21084;SDS011;34247;50.064;19.970;2023-04-24T00:32:16;8.35;;;3.15;;
21084;SDS011;34247;50.064;19.970;2023-04-24T00:33:21;7.50;;;3.63;;
21084;SDS011;34247;50.064;19.970;2023-04-24T00:34:31;7.82;;;2.88;;
21084;SDS011;34247;50.064;19.970;2023-04-24T00:35:35;4.60;;;2.80;;
21084;SDS011;34247;50.064;19.970;2023-04-24T00:36:40;4.22;;;2.90;;
21084;SDS011;34247;50.064;19.970;2023-04-24T00:37:46;10.95;;;3.33;;
21084;SDS011;34247;50.064;19.970;2023-04-24T00:38:52;6.50;;;3.15;;
21084;SDS011;34247;50.064;19.970;2023-04-24T00:39:59;5.60;;;3.00;;
21084;SDS011;34247;50.064;19.970;2023-04-24T00:41:03;8.40;;;3.50;;
21084;SDS011;34247;50.064;19.970;2023-04-24T00:42:08;7.65;;;2.17;;
21084;SDS011;34247;50.064;19.970;2023-04-24T00:43:16;4.25;;;2.35;;
21084;SDS011;34247;50.064;19.970;2023-04-24T00:44:26;3.50;;;2.97;;
21084;SDS011;34247;50.064;19.970;2023-04-24T00:45:34;5.88;;;3.20;;
21084;SDS011;34247;50.064;19.970;2023-04-24T00:46:42;7.47;;;3.22;;
21084;SDS011;34247;50.064;19.970;2023-04-24T00:47:48;4.60;;;3.35;;
21084;SDS011;34247;50.064;19.970;2023-04-24T00:48:56;6.90;;;3.08;;
21084;SDS011;34247;50.064;19.970;2023-04-24T00:50:03;4.90;;;2.88;;
21084;SDS011;34247;50.064;19.970;2023-04-24T00:51:09;7.60;;;3.25;;
21084;SDS011;34247;50.064;19.970;2023-04-24T00:52:14;7.32;;;4.13;;
21084;SDS011;34247;50.064;19.970;2023-04-24T00:53:21;3.70;;;3.22;;
21084;SDS011;34247;50.064;19.970;2023-04-24T00:54:25;5.90;;;2.90;;
21084;SDS011;34247;50.064;19.970;2023-04-24T00:55:30;3.42;;;2.90;;
21084;SDS011;34247;50.064;19.970;2023-04-24T00:56:37;8.60;;;3.95;;
21084;SDS011;34247;50.064;19.970;2023-04-24T00:57:43;7.65;;;3.83;;
21084;SDS011;34247;50.064;19.970;2023-04-24T00:58:48;7.72;;;2.95;;
21084;SDS011;34247;50.064;19.970;2023-04-24T00:59:55;4.35;;;3.28;;
21084;SDS011;34247;50.064;19.970;2023-04-24T01:01:01;3.83;;;2.72;;
21084;SDS011;34247;50.064;19.970;2023-04-24T01:02:27;5.05;;;3.13;;
21084;SDS011;34247;50.064;19.970;2023-04-24T01:03:43;6.20;;;2.97;;
21084;SDS011;34247;50.064;19.970;2023-04-24T01:04:50;11.43;;;3.38;;
21084;SDS011;34247;50.064;19.970;2023-04-24T01:05:54;6.78;;;3.35;;
21084;SDS011;34247;50.064;19.970;2023-04-24T01:07:00;6.28;;;3.28;;
21084;SDS011;34247;50.064;19.970;2023-04-24T01:08:04;10.88;;;3.80;;
21084;SDS011;34247;50.064;19.970;2023-04-24T01:09:10;6.22;;;3.17;;
21084;SDS011;34247;50.064;19.970;2023-04-24T01:10:16;5.32;;;3.60;;
21084;SDS011;34247;50.064;19.970;2023-04-24T01:11:21;6.30;;;3.17;;
21084;SDS011;34247;50.064;19.970;2023-04-24T01:12:25;6.20;;;3.22;;
21084;SDS011;34247;50.064;19.970;2023-04-24T01:13:29;6.38;;;3.20;;
21084;SDS011;34247;50.064;19.970;2023-04-24T01:14:36;6.15;;;3.83;;
21084;SDS011;34247;50.064;19.970;2023-04-24T01:15:41;7.07;;;3.78;;
21084;SDS011;34247;50.064;19.970;2023-04-24T01:16:45;6.35;;;4.05;;
21084;SDS011;34247;50.064;19.970;2023-04-24T01:17:51;6.00;;;3.72;;
21084;SDS011;34247;50.064;19.970;2023-04-24T01:18:59;5.25;;;2.72;;
21084;SDS011;34247;50.064;19.970;2023-04-24T01:20:03;6.28;;;3.85;;
21084;SDS011;34247;50.064;19.970;2023-04-24T01:21:11;8.30;;;3.40;;
21084;SDS011;34247;50.064;19.970;2023-04-24T01:22:26;5.63;;;3.10;;
21084;SDS011;34247;50.064;19.970;2023-04-24T01:24:04;6.18;;;3.53;;
21084;SDS011;34247;50.064;19.970;2023-04-24T01:25:25;12.38;;;2.88;;
21084;SDS011;34247;50.064;19.970;2023-04-24T01:26:34;9.18;;;3.08;;
21084;SDS011;34247;50.064;19.970;2023-04-24T01:27:53;12.20;;;3.42;;
21084;SDS011;34247;50.064;19.970;2023-04-24T01:29:00;4.45;;;3.00;;
21084;SDS011;34247;50.064;19.970;2023-04-24T01:30:06;6.85;;;3.58;;
21084;SDS011;34247;50.064;19.970;2023-04-24T01:31:11;7.40;;;3.70;;
21084;SDS011;34247;50.064;19.970;2023-04-24T01:32:25;8.05;;;4.05;;
21084;SDS011;34247;50.064;19.970;2023-04-24T01:33:35;4.60;;;3.10;;
21084;SDS011;34247;50.064;19.970;2023-04-24T01:34:44;5.75;;;3.78;;
21084;SDS011;34247;50.064;19.970;2023-04-24T01:35:49;8.15;;;3.95;;
21084;SDS011;34247;50.064;19.970;2023-04-24T01:36:53;3.22;;;2.88;;
21084;SDS011;34247;50.064;19.970;2023-04-24T01:37:59;8.15;;;3.45;;
21084;SDS011;34247;50.064;19.970;2023-04-24T01:39:02;8.00;;;4.50;;
21084;SDS011;34247;50.064;19.970;2023-04-24T01:40:08;7.80;;;3.40;;
21084;SDS011;34247;50.064;19.970;2023-04-24T01:41:13;3.38;;;2.90;;
21084;SDS011;34247;50.064;19.970;2023-04-24T01:42:17;9.98;;;3.92;;
21084;SDS011;34247;50.064;19.970;2023-04-24T01:43:22;8.07;;;3.28;;
21084;SDS011;34247;50.064;19.970;2023-04-24T01:44:28;11.93;;;3.05;;
21084;SDS011;34247;50.064;19.970;2023-04-24T01:45:32;12.80;;;3.85;;
21084;SDS011;34247;50.064;19.970;2023-04-24T01:46:36;8.15;;;3.13;;
21084;SDS011;34247;50.064;19.970;2023-04-24T01:47:42;7.82;;;3.72;;
21084;SDS011;34247;50.064;19.970;2023-04-24T01:48:51;7.57;;;2.97;;
21084;SDS011;34247;50.064;19.970;2023-04-24T01:49:58;7.70;;;4.07;;
21084;SDS011;34247;50.064;19.970;2023-04-24T01:51:02;9.65;;;3.55;;
21084;SDS011;34247;50.064;19.970;2023-04-24T01:52:06;5.35;;;2.90;;
21084;SDS011;34247;50.064;19.970;2023-04-24T01:53:11;5.00;;;3.67;;
21084;SDS011;34247;50.064;19.970;2023-04-24T01:54:15;4.90;;;3.38;;
21084;SDS011;34247;50.064;19.970;2023-04-24T01:55:19;6.55;;;3.55;;
21084;SDS011;34247;50.064;19.970;2023-04-24T01:56:28;7.38;;;3.00;;
21084;SDS011;34247;50.064;19.970;2023-04-24T01:57:35;8.30;;;3.70;;
21084;SDS011;34247;50.064;19.970;2023-04-24T01:58:40;7.40;;;4.88;;
21084;SDS011;34247;50.064;19.970;2023-04-24T01:59:44;4.35;;;3.00;;
21084;SDS011;34247;50.064;19.970;2023-04-24T02:00:48;5.57;;;3.63;;
21084;SDS011;34247;50.064;19.970;2023-04-24T02:01:53;5.53;;;3.10;;
21084;SDS011;34247;50.064;19.970;2023-04-24T02:02:57;7.07;;;3.60;;
21084;SDS011;34247;50.064;19.970;2023-04-24T03:09:00;9.48;;;3.67;;
21084;SDS011;34247;50.064;19.970;2023-04-24T03:10:09;6.07;;;3.47;;
21084;SDS011;34247;50.064;19.970;2023-04-24T03:11:14;9.82;;;3.58;;
21084;SDS011;34247;50.064;19.970;2023-04-24T03:12:29;4.35;;;3.28;;
21084;SDS011;34247;50.064;19.970;2023-04-24T03:13:35;5.70;;;3.38;;
21084;SDS011;34247;50.064;19.970;2023-04-24T03:14:40;7.80;;;3.83;;
21084;SDS011;34247;50.064;19.970;2023-04-24T03:15:49;4.28;;;3.40;;
21084;SDS011;34247;50.064;19.970;2023-04-24T03:17:03;7.60;;;4.30;;
21084;SDS011;34247;50.064;19.970;2023-04-24T03:18:17;4.95;;;3.25;;
21084;SDS011;34247;50.064;19.970;2023-04-24T03:19:21;4.82;;;3.28;;
21084;SDS011;34247;50.064;19.970;2023-04-24T03:20:31;5.88;;;3.70;;
21084;SDS011;34247;50.064;19.970;2023-04-24T03:21:36;6.00;;;3.78;;
21084;SDS011;34247;50.064;19.970;2023-04-24T03:22:44;6.72;;;3.42;;
21084;SDS011;34247;50.064;19.970;2023-04-24T03:24:05;7.40;;;3.53;;
21084;SDS011;34247;50.064;19.970;2023-04-24T03:25:19;5.22;;;3.28;;
21084;SDS011;34247;50.064;19.970;2023-04-24T03:26:54;11.73;;;4.13;;
21084;SDS011;34247;50.064;19.970;2023-04-24T03:28:13;3.95;;;2.92;;
21084;SDS011;34247;50.064;19.970;2023-04-24T03:29:32;5.03;;;3.20;;
21084;SDS011;34247;50.064;19.970;2023-04-24T03:30:38;4.60;;;2.67;;
21084;SDS011;34247;50.064;19.970;2023-04-24T03:31:48;7.32;;;3.75;;
21084;SDS011;34247;50.064;19.970;2023-04-24T03:32:57;4.47;;;4.03;;
21084;SDS011;34247;50.064;19.970;2023-04-24T03:34:06;7.63;;;4.35;;
21084;SDS011;34247;50.064;19.970;2023-04-24T03:35:10;6.45;;;3.25;;
21084;SDS011;34247;50.064;19.970;2023-04-24T03:36:14;8.52;;;3.33;;
21084;SDS011;34247;50.064;19.970;2023-04-24T03:37:18;7.68;;;3.45;;
21084;SDS011;34247;50.064;19.970;2023-04-24T03:38:22;10.52;;;3.47;;
21084;SDS011;34247;50.064;19.970;2023-04-24T03:39:25;9.13;;;3.17;;
21084;SDS011;34247;50.064;19.970;2023-04-24T03:40:30;10.20;;;4.03;;
21084;SDS011;34247;50.064;19.970;2023-04-24T03:41:40;5.63;;;3.17;;
21084;SDS011;34247;50.064;19.970;2023-04-24T03:42:44;5.53;;;3.33;;
21084;SDS011;34247;50.064;19.970;2023-04-24T03:43:48;7.25;;;3.10;;
21084;SDS011;34247;50.064;19.970;2023-04-24T03:44:53;7.40;;;3.35;;
21084;SDS011;34247;50.064;19.970;2023-04-24T03:45:57;7.13;;;3.15;;
21084;SDS011;34247;50.064;19.970;2023-04-24T03:47:01;9.25;;;2.92;;
21084;SDS011;34247;50.064;19.970;2023-04-24T03:48:19;9.23;;;3.10;;
21084;SDS011;34247;50.064;19.970;2023-04-24T03:49:30;10.70;;;3.35;;
21084;SDS011;34247;50.064;19.970;2023-04-24T03:50:40;6.47;;;3.47;;
21084;SDS011;34247;50.064;19.970;2023-04-24T03:52:04;8.07;;;3.05;;
21084;SDS011;34247;50.064;19.970;2023-04-24T03:53:20;7.35;;;2.78;;
21084;SDS011;34247;50.064;19.970;2023-04-24T03:54:33;10.45;;;4.45;;
21084;SDS011;34247;50.064;19.970;2023-04-24T03:55:40;3.50;;;3.03;;
21084;SDS011;34247;50.064;19.970;2023-04-24T03:56:46;6.57;;;3.83;;
21084;SDS011;34247;50.064;19.970;2023-04-24T03:58:03;7.18;;;3.25;;
21084;SDS011;34247;50.064;19.970;2023-04-24T03:59:09;3.38;;;2.72;;
21084;SDS011;34247;50.064;19.970;2023-04-24T04:00:17;5.95;;;3.33;;
21084;SDS011;34247;50.064;19.970;2023-04-24T04:01:38;8.52;;;3.83;;
21084;SDS011;34247;50.064;19.970;2023-04-24T04:02:54;5.57;;;3.55;;
21084;SDS011;34247;50.064;19.970;2023-04-24T04:04:17;5.05;;;4.00;;
21084;SDS011;34247;50.064;19.970;2023-04-24T04:05:45;7.25;;;3.58;;
21084;SDS011;34247;50.064;19.970;2023-04-24T04:06:55;5.82;;;3.13;;
21084;SDS011;34247;50.064;19.970;2023-04-24T04:08:12;3.60;;;2.75;;
21084;SDS011;34247;50.064;19.970;2023-04-24T04:09:25;6.50;;;4.03;;
21084;SDS011;34247;50.064;19.970;2023-04-24T04:10:29;4.60;;;3.30;;
21084;SDS011;34247;50.064;19.970;2023-04-24T04:11:34;8.23;;;4.30;;
21084;SDS011;34247;50.064;19.970;2023-04-24T04:12:39;6.00;;;3.72;;
21084;SDS011;34247;50.064;19.970;2023-04-24T04:13:44;6.43;;;3.38;;
21084;SDS011;34247;50.064;19.970;2023-04-24T04:14:51;5.00;;;3.17;;
21084;SDS011;34247;50.064;19.970;2023-04-24T04:15:55;6.07;;;3.58;;
21084;SDS011;34247;50.064;19.970;2023-04-24T04:16:59;8.63;;;3.13;;
21084;SDS011;34247;50.064;19.970;2023-04-24T04:19:37;6.78;;;3.55;;
21084;SDS011;34247;50.064;19.970;2023-04-24T04:20:56;7.70;;;3.35;;
21084;SDS011;34247;50.064;19.970;2023-04-24T04:22:06;3.88;;;3.15;;
21084;SDS011;34247;50.064;19.970;2023-04-24T04:23:10;2.58;;;2.22;;
21084;SDS011;34247;50.064;19.970;2023-04-24T04:24:15;11.52;;;3.08;;
21084;SDS011;34247;50.064;19.970;2023-04-24T04:25:45;4.07;;;2.47;;
21084;SDS011;34247;50.064;19.970;2023-04-24T04:26:51;4.47;;;2.80;;
21084;SDS011;34247;50.064;19.970;2023-04-24T04:27:59;3.97;;;2.55;;
21084;SDS011;34247;50.064;19.970;2023-04-24T04:29:05;4.00;;;3.05;;
21084;SDS011;34247;50.064;19.970;2023-04-24T04:30:09;7.15;;;2.92;;
21084;SDS011;34247;50.064;19.970;2023-04-24T04:31:18;2.72;;;2.47;;
21084;SDS011;34247;50.064;19.970;2023-04-24T04:32:56;6.70;;;3.35;;
21084;SDS011;34247;50.064;19.970;2023-04-24T04:34:16;4.63;;;2.78;;
21084;SDS011;34247;50.064;19.970;2023-04-24T04:35:29;3.25;;;2.78;;
21084;SDS011;34247;50.064;19.970;2023-04-24T04:36:43;3.65;;;3.17;;
21084;SDS011;34247;50.064;19.970;2023-04-24T04:37:51;6.35;;;3.25;;
21084;SDS011;34247;50.064;19.970;2023-04-24T04:38:59;5.30;;;2.45;;
21084;SDS011;34247;50.064;19.970;2023-04-24T04:40:04;3.65;;;2.97;;
21084;SDS011;34247;50.064;19.970;2023-04-24T04:41:15;3.00;;;2.78;;
21084;SDS011;34247;50.064;19.970;2023-04-24T04:42:31;4.22;;;2.42;;
21084;SDS011;34247;50.064;19.970;2023-04-24T04:43:48;8.25;;;2.42;;
21084;SDS011;34247;50.064;19.970;2023-04-24T04:45:08;4.13;;;2.53;;
21084;SDS011;34247;50.064;19.970;2023-04-24T04:46:14;3.08;;;2.83;;
21084;SDS011;34247;50.064;19.970;2023-04-24T04:47:31;4.03;;;2.67;;
21084;SDS011;34247;50.064;19.970;2023-04-24T04:48:38;2.30;;;2.03;;
21084;SDS011;34247;50.064;19.970;2023-04-24T04:49:43;6.18;;;2.60;;
21084;SDS011;34247;50.064;19.970;2023-04-24T04:50:47;3.38;;;2.20;;
21084;SDS011;34247;50.064;19.970;2023-04-24T04:51:52;3.53;;;2.83;;
21084;SDS011;34247;50.064;19.970;2023-04-24T04:52:57;3.75;;;3.03;;
21084;SDS011;34247;50.064;19.970;2023-04-24T04:54:04;5.55;;;3.58;;
21084;SDS011;34247;50.064;19.970;2023-04-24T04:55:08;6.03;;;3.47;;
21084;SDS011;34247;50.064;19.970;2023-04-24T04:56:12;5.65;;;2.60;;
21084;SDS011;34247;50.064;19.970;2023-04-24T04:57:17;8.25;;;2.53;;
21084;SDS011;34247;50.064;19.970;2023-04-24T04:58:23;5.13;;;3.05;;
21084;SDS011;34247;50.064;19.970;2023-04-24T04:59:27;5.00;;;2.97;;
21084;SDS011;34247;50.064;19.970;2023-04-24T05:00:32;5.53;;;3.33;;
21084;SDS011;34247;50.064;19.970;2023-04-24T05:01:38;6.07;;;2.28;;
21084;SDS011;34247;50.064;19.970;2023-04-24T05:03:09;4.18;;;3.63;;
21084;SDS011;34247;50.064;19.970;2023-04-24T05:04:23;3.85;;;2.50;;
21084;SDS011;34247;50.064;19.970;2023-04-24T05:05:28;4.50;;;2.83;;
21084;SDS011;34247;50.064;19.970;2023-04-24T05:06:33;7.60;;;2.60;;
21084;SDS011;34247;50.064;19.970;2023-04-24T05:07:37;2.78;;;2.05;;
21084;SDS011;34247;50.064;19.970;2023-04-24T05:08:41;3.80;;;2.55;;
21084;SDS011;34247;50.064;19.970;2023-04-24T05:09:46;4.93;;;2.75;;
21084;SDS011;34247;50.064;19.970;2023-04-24T05:10:50;4.15;;;2.47;;
21084;SDS011;34247;50.064;19.970;2023-04-24T05:11:55;5.97;;;2.42;;
21084;SDS011;34247;50.064;19.970;2023-04-24T05:12:59;3.95;;;2.20;;
21084;SDS011;34247;50.064;19.970;2023-04-24T05:14:05;9.18;;;2.78;;
21084;SDS011;34247;50.064;19.970;2023-04-24T05:15:10;2.63;;;1.95;;
21084;SDS011;34247;50.064;19.970;2023-04-24T05:16:15;7.35;;;2.78;;
21084;SDS011;34247;50.064;19.970;2023-04-24T05:17:20;2.83;;;2.58;;
21084;SDS011;34247;50.064;19.970;2023-04-24T05:18:24;2.50;;;2.25;;
21084;SDS011;34247;50.064;19.970;2023-04-24T05:19:29;4.68;;;2.88;;
21084;SDS011;34247;50.064;19.970;2023-04-24T05:20:36;7.68;;;3.20;;
21084;SDS011;34247;50.064;19.970;2023-04-24T05:21:41;2.53;;;2.08;;
21084;SDS011;34247;50.064;19.970;2023-04-24T05:22:45;8.07;;;2.70;;
21084;SDS011;34247;50.064;19.970;2023-04-24T05:23:49;3.50;;;2.85;;
21084;SDS011;34247;50.064;19.970;2023-04-24T05:24:54;1.83;;;1.70;;
21084;SDS011;34247;50.064;19.970;2023-04-24T05:26:01;2.88;;;2.63;;
21084;SDS011;34247;50.064;19.970;2023-04-24T05:27:09;6.30;;;2.53;;
21084;SDS011;34247;50.064;19.970;2023-04-24T05:28:12;2.38;;;2.20;;
21084;SDS011;34247;50.064;19.970;2023-04-24T05:29:17;8.23;;;2.28;;
21084;SDS011;34247;50.064;19.970;2023-04-24T05:30:25;4.07;;;2.42;;
21084;SDS011;34247;50.064;19.970;2023-04-24T05:31:30;6.18;;;2.53;;
21084;SDS011;34247;50.064;19.970;2023-04-24T05:32:35;2.42;;;2.22;;
21084;SDS011;34247;50.064;19.970;2023-04-24T05:33:38;3.88;;;3.33;;
21084;SDS011;34247;50.064;19.970;2023-04-24T05:34:46;5.55;;;2.83;;
21084;SDS011;34247;50.064;19.970;2023-04-24T05:35:51;4.57;;;2.35;;
21084;SDS011;34247;50.064;19.970;2023-04-24T05:36:54;2.15;;;1.95;;
21084;SDS011;34247;50.064;19.970;2023-04-24T05:37:58;3.08;;;2.40;;
21084;SDS011;34247;50.064;19.970;2023-04-24T05:39:02;3.42;;;2.15;;
21084;SDS011;34247;50.064;19.970;2023-04-24T05:40:10;4.57;;;2.13;;
21084;SDS011;34247;50.064;19.970;2023-04-24T05:41:14;2.83;;;1.85;;
21084;SDS011;34247;50.064;19.970;2023-04-24T05:42:18;8.68;;;2.35;;
21084;SDS011;34247;50.064;19.970;2023-04-24T05:43:23;6.72;;;2.90;;
21084;SDS011;34247;50.064;19.970;2023-04-24T05:44:28;11.85;;;2.65;;
21084;SDS011;34247;50.064;19.970;2023-04-24T05:45:31;8.10;;;2.45;;
21084;SDS011;34247;50.064;19.970;2023-04-24T05:46:37;2.05;;;1.85;;
21084;SDS011;34247;50.064;19.970;2023-04-24T05:47:41;2.72;;;2.47;;
21084;SDS011;34247;50.064;19.970;2023-04-24T05:48:52;2.55;;;1.95;;
21084;SDS011;34247;50.064;19.970;2023-04-24T05:49:59;5.03;;;1.90;;
21084;SDS011;34247;50.064;19.970;2023-04-24T05:51:03;3.50;;;2.50;;
21084;SDS011;34247;50.064;19.970;2023-04-24T05:52:07;2.60;;;2.05;;
21084;SDS011;34247;50.064;19.970;2023-04-24T05:53:12;3.67;;;1.70;;
21084;SDS011;34247;50.064;19.970;2023-04-24T05:54:16;3.10;;;2.47;;
21084;SDS011;34247;50.064;19.970;2023-04-24T05:55:20;9.63;;;2.33;;
21084;SDS011;34247;50.064;19.970;2023-04-24T05:56:23;2.92;;;2.22;;
21084;SDS011;34247;50.064;19.970;2023-04-24T05:57:28;2.08;;;1.88;;
21084;SDS011;34247;50.064;19.970;2023-04-24T05:58:32;6.57;;;2.15;;
21084;SDS011;34247;50.064;19.970;2023-04-24T05:59:37;5.05;;;2.20;;
21084;SDS011;34247;50.064;19.970;2023-04-24T06:01:00;2.00;;;1.80;;
21084;SDS011;34247;50.064;19.970;2023-04-24T06:02:05;2.20;;;1.88;;
21084;SDS011;34247;50.064;19.970;2023-04-24T06:03:10;6.55;;;2.15;;
21084;SDS011;34247;50.064;19.970;2023-04-24T06:04:27;3.88;;;2.92;;
21084;SDS011;34247;50.064;19.970;2023-04-24T06:05:31;6.45;;;1.92;;
21084;SDS011;34247;50.064;19.970;2023-04-24T06:06:35;4.68;;;1.88;;
21084;SDS011;34247;50.064;19.970;2023-04-24T06:07:39;4.20;;;1.75;;
21084;SDS011;34247;50.064;19.970;2023-04-24T06:08:43;5.47;;;2.00;;
21084;SDS011;34247;50.064;19.970;2023-04-24T06:09:48;2.10;;;1.90;;
21084;SDS011;34247;50.064;19.970;2023-04-24T06:10:52;9.68;;;2.45;;
21084;SDS011;34247;50.064;19.970;2023-04-24T06:11:56;4.10;;;2.47;;
21084;SDS011;34247;50.064;19.970;2023-04-24T06:13:01;2.70;;;2.15;;
21084;SDS011;34247;50.064;19.970;2023-04-24T06:14:05;7.25;;;2.55;;
21084;SDS011;34247;50.064;19.970;2023-04-24T06:15:09;4.72;;;2.75;;
21084;SDS011;34247;50.064;19.970;2023-04-24T06:16:13;2.22;;;1.95;;
21084;SDS011;34247;50.064;19.970;2023-04-24T06:17:20;2.53;;;1.75;;
21084;SDS011;34247;50.064;19.970;2023-04-24T06:18:25;6.68;;;2.15;;
21084;SDS011;34247;50.064;19.970;2023-04-24T06:19:29;3.97;;;1.90;;
21084;SDS011;34247;50.064;19.970;2023-04-24T06:20:33;4.70;;;1.75;;
21084;SDS011;34247;50.064;19.970;2023-04-24T06:21:37;3.00;;;2.15;;
21084;SDS011;34247;50.064;19.970;2023-04-24T06:22:44;3.22;;;1.90;;
21084;SDS011;34247;50.064;19.970;2023-04-24T06:23:48;3.47;;;1.60;;
21084;SDS011;34247;50.064;19.970;2023-04-24T06:24:52;5.82;;;1.60;;
21084;SDS011;34247;50.064;19.970;2023-04-24T06:25:57;2.08;;;1.55;;
21084;SDS011;34247;50.064;19.970;2023-04-24T06:27:02;4.70;;;1.92;;
21084;SDS011;34247;50.064;19.970;2023-04-24T06:28:06;2.33;;;1.67;;
21084;SDS011;34247;50.064;19.970;2023-04-24T06:29:11;5.40;;;2.20;;
21084;SDS011;34247;50.064;19.970;2023-04-24T06:30:15;3.17;;;1.73;;
21084;SDS011;34247;50.064;19.970;2023-04-24T06:31:19;4.30;;;1.80;;
21084;SDS011;34247;50.064;19.970;2023-04-24T06:32:24;1.80;;;1.67;;
21084;SDS011;34247;50.064;19.970;2023-04-24T06:33:28;2.88;;;2.13;;
21084;SDS011;34247;50.064;19.970;2023-04-24T06:34:34;5.18;;;1.65;;
21084;SDS011;34247;50.064;19.970;2023-04-24T06:35:39;1.80;;;1.70;;
21084;SDS011;34247;50.064;19.970;2023-04-24T06:36:44;2.65;;;1.60;;
21084;SDS011;34247;50.064;19.970;2023-04-24T06:37:48;1.02;;;1.00;;
21084;SDS011;34247;50.064;19.970;2023-04-24T06:38:52;1.85;;;1.73;;
21084;SDS011;34247;50.064;19.970;2023-04-24T06:39:57;7.53;;;1.75;;
21084;SDS011;34247;50.064;19.970;2023-04-24T06:41:01;4.18;;;1.42;;
21084;SDS011;34247;50.064;19.970;2023-04-24T06:42:06;1.40;;;1.30;;
21084;SDS011;34247;50.064;19.970;2023-04-24T06:43:14;3.83;;;1.80;;
21084;SDS011;34247;50.064;19.970;2023-04-24T06:44:18;1.95;;;1.70;;
21084;SDS011;34247;50.064;19.970;2023-04-24T06:45:22;2.75;;;1.60;;
21084;SDS011;34247;50.064;19.970;2023-04-24T06:46:26;2.22;;;1.70;;
21084;SDS011;34247;50.064;19.970;2023-04-24T06:47:31;3.50;;;1.70;;
21084;SDS011;34247;50.064;19.970;2023-04-24T06:48:35;4.88;;;2.33;;
21084;SDS011;34247;50.064;19.970;2023-04-24T06:49:39;9.00;;;2.67;;
21084;SDS011;34247;50.064;19.970;2023-04-24T06:50:43;2.55;;;1.42;;
21084;SDS011;34247;50.064;19.970;2023-04-24T06:51:48;3.92;;;1.33;;
21084;SDS011;34247;50.064;19.970;2023-04-24T06:52:52;2.60;;;2.13;;
21084;SDS011;34247;50.064;19.970;2023-04-24T06:53:57;3.92;;;1.63;;
21084;SDS011;34247;50.064;19.970;2023-04-24T06:55:01;3.03;;;1.85;;
21084;SDS011;34247;50.064;19.970;2023-04-24T06:56:06;2.10;;;1.48;;
21084;SDS011;34247;50.064;19.970;2023-04-24T06:57:13;2.60;;;1.73;;
21084;SDS011;34247;50.064;19.970;2023-04-24T06:58:21;2.47;;;1.60;;
21084;SDS011;34247;50.064;19.970;2023-04-24T06:59:27;1.52;;;1.30;;
21084;SDS011;34247;50.064;19.970;2023-04-24T07:00:32;1.98;;;1.75;;
21084;SDS011;34247;50.064;19.970;2023-04-24T07:01:37;5.80;;;1.73;;
21084;SDS011;34247;50.064;19.970;2023-04-24T07:02:43;1.88;;;1.35;;
21084;SDS011;34247;50.064;19.970;2023-04-24T07:03:48;2.67;;;1.60;;
21084;SDS011;34247;50.064;19.970;2023-04-24T07:04:52;4.75;;;1.55;;
21084;SDS011;34247;50.064;19.970;2023-04-24T07:05:56;2.03;;;1.23;;
21084;SDS011;34247;50.064;19.970;2023-04-24T07:07:00;8.70;;;1.73;;
21084;SDS011;34247;50.064;19.970;2023-04-24T07:08:05;6.40;;;1.27;;
21084;SDS011;34247;50.064;19.970;2023-04-24T07:09:25;2.95;;;1.48;;
21084;SDS011;34247;50.064;19.970;2023-04-24T07:10:30;1.40;;;1.30;;
21084;SDS011;34247;50.064;19.970;2023-04-24T07:11:34;4.22;;;1.92;;
21084;SDS011;34247;50.064;19.970;2023-04-24T07:12:39;3.63;;;1.60;;
21084;SDS011;34247;50.064;19.970;2023-04-24T07:13:44;3.30;;;1.88;;
21084;SDS011;34247;50.064;19.970;2023-04-24T07:14:50;2.10;;;1.05;;
21084;SDS011;34247;50.064;19.970;2023-04-24T07:15:54;6.10;;;1.90;;
21084;SDS011;34247;50.064;19.970;2023-04-24T07:16:59;3.15;;;1.65;;
21084;SDS011;34247;50.064;19.970;2023-04-24T07:18:03;2.08;;;1.17;;
21084;SDS011;34247;50.064;19.970;2023-04-24T07:19:11;3.60;;;1.90;;
21084;SDS011;34247;50.064;19.970;2023-04-24T07:20:17;3.03;;;1.52;;
21084;SDS011;34247;50.064;19.970;2023-04-24T07:21:21;2.05;;;1.63;;
21084;SDS011;34247;50.064;19.970;2023-04-24T07:22:29;4.97;;;1.63;;
21084;SDS011;34247;50.064;19.970;2023-04-24T07:23:33;2.55;;;1.45;;
21084;SDS011;34247;50.064;19.970;2023-04-24T07:24:37;1.50;;;1.27;;
21084;SDS011;34247;50.064;19.970;2023-04-24T07:25:41;1.58;;;1.25;;
21084;SDS011;34247;50.064;19.970;2023-04-24T07:26:45;1.52;;;1.42;;
21084;SDS011;34247;50.064;19.970;2023-04-24T07:27:49;2.45;;;1.17;;
21084;SDS011;34247;50.064;19.970;2023-04-24T07:28:53;2.95;;;1.50;;
21084;SDS011;34247;50.064;19.970;2023-04-24T07:29:57;3.83;;;1.65;;
21084;SDS011;34247;50.064;19.970;2023-04-24T07:31:01;2.33;;;1.38;;
21084;SDS011;34247;50.064;19.970;2023-04-24T07:32:06;3.70;;;1.55;;
21084;SDS011;34247;50.064;19.970;2023-04-24T07:33:11;3.72;;;2.40;;
21084;SDS011;34247;50.064;19.970;2023-04-24T07:34:19;2.90;;;2.13;;
21084;SDS011;34247;50.064;19.970;2023-04-24T07:35:23;4.07;;;1.60;;
21084;SDS011;34247;50.064;19.970;2023-04-24T07:36:30;2.38;;;1.40;;
21084;SDS011;34247;50.064;19.970;2023-04-24T07:37:35;2.83;;;1.35;;
21084;SDS011;34247;50.064;19.970;2023-04-24T07:38:39;2.03;;;1.15;;
21084;SDS011;34247;50.064;19.970;2023-04-24T07:39:43;5.03;;;1.25;;
21084;SDS011;34247;50.064;19.970;2023-04-24T07:40:48;6.35;;;2.20;;
21084;SDS011;34247;50.064;19.970;2023-04-24T07:41:52;2.28;;;1.83;;
21084;SDS011;34247;50.064;19.970;2023-04-24T07:42:56;2.72;;;1.40;;
21084;SDS011;34247;50.064;19.970;2023-04-24T07:44:00;6.82;;;1.40;;